Map

Track Data

SID SEASON NUMBER BASIN SUBBASIN NAME ISO_TIME NATURE LAT LON WMO_WIND WMO_PRES WMO_AGENCY TRACK_TYPE DIST2LAND LANDFALL IFLAG USA_AGENCY USA_ATCF_ID USA_LAT USA_LON USA_RECORD USA_STATUS USA_WIND USA_PRES USA_SSHS USA_R34_NE USA_R34_SE USA_R34_SW USA_R34_NW USA_R50_NE USA_R50_SE USA_R50_SW USA_R50_NW USA_R64_NE USA_R64_SE USA_R64_SW USA_R64_NW USA_POCI USA_ROCI USA_RMW USA_EYE TOKYO_LAT TOKYO_LON TOKYO_GRADE TOKYO_WIND TOKYO_PRES TOKYO_R50_DIR TOKYO_R50_LONG TOKYO_R50_SHORT TOKYO_R30_DIR TOKYO_R30_LONG TOKYO_R30_SHORT TOKYO_LAND CMA_LAT CMA_LON CMA_CAT CMA_WIND CMA_PRES HKO_LAT HKO_LON HKO_CAT HKO_WIND HKO_PRES NEWDELHI_LAT NEWDELHI_LON NEWDELHI_GRADE NEWDELHI_WIND NEWDELHI_PRES NEWDELHI_CI NEWDELHI_DP NEWDELHI_POCI REUNION_LAT REUNION_LON REUNION_TYPE REUNION_WIND REUNION_PRES REUNION_TNUM REUNION_CI REUNION_RMW REUNION_R34_NE REUNION_R34_SE REUNION_R34_SW REUNION_R34_NW REUNION_R50_NE REUNION_R50_SE REUNION_R50_SW REUNION_R50_NW REUNION_R64_NE REUNION_R64_SE REUNION_R64_SW REUNION_R64_NW BOM_LAT BOM_LON BOM_TYPE BOM_WIND BOM_PRES BOM_TNUM BOM_CI BOM_RMW BOM_R34_NE BOM_R34_SE BOM_R34_SW BOM_R34_NW BOM_R50_NE BOM_R50_SE BOM_R50_SW BOM_R50_NW BOM_R64_NE BOM_R64_SE BOM_R64_SW BOM_R64_NW BOM_ROCI BOM_POCI BOM_EYE BOM_POS_METHOD BOM_PRES_METHOD NADI_LAT NADI_LON NADI_CAT NADI_WIND NADI_PRES WELLINGTON_LAT WELLINGTON_LON WELLINGTON_WIND WELLINGTON_PRES DS824_LAT DS824_LON DS824_STAGE DS824_WIND DS824_PRES TD9636_LAT TD9636_LON TD9636_STAGE TD9636_WIND TD9636_PRES TD9635_LAT TD9635_LON TD9635_WIND TD9635_PRES TD9635_ROCI NEUMANN_LAT NEUMANN_LON NEUMANN_CLASS NEUMANN_WIND NEUMANN_PRES MLC_LAT MLC_LON MLC_CLASS MLC_WIND MLC_PRES USA_GUST BOM_GUST BOM_GUST_PER REUNION_GUST REUNION_GUST_PER USA_SEAHGT USA_SEARAD_NE USA_SEARAD_SE USA_SEARAD_SW USA_SEARAD_NW STORM_SPEED STORM_DIR
1995278N08329 1995 77 NA NA PABLO 1995-10-04 18:00:00 TS 8.30000 -31.4000 30 1009 hurdat_atl main 1552 1516 O_____________ hurdat_atl AL181995 8.30000 -31.4000 TD 30 1009 -1 12 267
1995278N08329 1995 77 NA NA PABLO 1995-10-04 21:00:00 TS 8.26990 -32.0129 main 1516 1482 P_____________ AL181995 8.26990 -32.0129 TD 30 1009 -1 14 274
1995278N08329 1995 77 NA NA PABLO 1995-10-05 00:00:00 TS 8.40000 -32.8000 30 1009 hurdat_atl main 1481 1465 O_____________ hurdat_atl AL181995 8.40000 -32.8000 TD 30 1009 -1 19 286
1995278N08329 1995 77 NA NA PABLO 1995-10-05 03:00:00 TS 8.79012 -33.8748 main 1465 1456 P_____________ AL181995 8.79012 -33.8748 TD 30 1008 -1 25 292
1995278N08329 1995 77 NA NA PABLO 1995-10-05 06:00:00 TS 9.30000 -35.1000 30 1008 hurdat_atl main 1463 1459 O_____________ hurdat_atl AL181995 9.30000 -35.1000 TD 30 1008 -1 26 292
1995278N08329 1995 77 NA NA PABLO 1995-10-05 09:00:00 TS 9.74950 -36.2779 main 1464 1464 P_____________ AL181995 9.74950 -36.2779 TD 32 1007 -1 25 291
1995278N08329 1995 77 NA NA PABLO 1995-10-05 12:00:00 TS 10.2000 -37.5000 35 1006 hurdat_atl main 1489 1487 O_____________ hurdat_atl AL181995 10.2000 -37.5000 TS 35 1006 0 27 290
1995278N08329 1995 77 NA NA PABLO 1995-10-05 15:00:00 TS 10.6878 -38.8445 main 1524 1460 P_____________ AL181995 10.6878 -38.8445 TS 37 1004 0 27 289
1995278N08329 1995 77 NA NA PABLO 1995-10-05 18:00:00 TS 11.1000 -40.1000 40 1003 hurdat_atl main 1450 1379 O_____________ hurdat_atl AL181995 11.1000 -40.1000 TS 40 1003 0 23 287
1995278N08329 1995 77 NA NA PABLO 1995-10-05 21:00:00 TS 11.3289 -41.0382 main 1379 1321 P_____________ AL181995 11.3289 -41.0382 TS 45 1000 0 18 283
1995278N08329 1995 77 NA NA PABLO 1995-10-06 00:00:00 TS 11.5000 -41.9000 50 997 hurdat_atl main 1312 1249 O_____________ hurdat_atl AL181995 11.5000 -41.9000 TS 50 997 0 19 283
1995278N08329 1995 77 NA NA PABLO 1995-10-06 03:00:00 TS 11.7651 -42.9498 main 1249 1186 P_____________ AL181995 11.7651 -42.9498 TS 50 995 0 21 284
1995278N08329 1995 77 NA NA PABLO 1995-10-06 06:00:00 TS 12.0000 -44.0000 50 994 hurdat_atl main 1178 1122 O_____________ hurdat_atl AL181995 12.0000 -44.0000 TS 50 994 0 20 280
1995278N08329 1995 77 NA NA PABLO 1995-10-06 09:00:00 TS 12.1220 -44.9303 main 1122 1072 P_____________ AL181995 12.1220 -44.9303 TS 50 994 0 18 276
1995278N08329 1995 77 NA NA PABLO 1995-10-06 12:00:00 TS 12.2000 -45.8000 50 995 hurdat_atl main 1072 1033 O_____________ hurdat_atl AL181995 12.2000 -45.8000 TS 50 995 0 17 276
1995278N08329 1995 77 NA NA PABLO 1995-10-06 15:00:00 TS 12.3074 -46.6874 main 1026 982 P_____________ AL181995 12.3074 -46.6874 TS 47 996 0 17 277
1995278N08329 1995 77 NA NA PABLO 1995-10-06 18:00:00 TS 12.4000 -47.5000 45 998 hurdat_atl main 982 940 O_____________ hurdat_atl AL181995 12.4000 -47.5000 TS 45 998 0 15 276
1995278N08329 1995 77 NA NA PABLO 1995-10-06 21:00:00 TS 12.4497 -48.1876 main 940 918 P_____________ AL181995 12.4497 -48.1876 TS 45 999 0 13 275
1995278N08329 1995 77 NA NA PABLO 1995-10-07 00:00:00 TS 12.5000 -48.8000 45 1000 hurdat_atl main 918 899 O_____________ hurdat_atl AL181995 12.5000 -48.8000 TS 45 1000 0 12 277
1995278N08329 1995 77 NA NA PABLO 1995-10-07 03:00:00 TS 12.5999 -49.4149 main 899 884 P_____________ AL181995 12.5999 -49.4149 TS 45 1000 0 12 280
1995278N08329 1995 77 NA NA PABLO 1995-10-07 06:00:00 TS 12.7000 -50.0000 45 1000 hurdat_atl main 884 873 O_____________ hurdat_atl AL181995 12.7000 -50.0000 TS 45 1000 0 11 279
1995278N08329 1995 77 NA NA PABLO 1995-10-07 09:00:00 TS 12.7798 -50.5499 main 873 844 P_____________ AL181995 12.7798 -50.5499 TS 45 1000 0 11 275
1995278N08329 1995 77 NA NA PABLO 1995-10-07 12:00:00 TS 12.8000 -51.1000 45 1000 hurdat_atl main 844 813 O_____________ hurdat_atl AL181995 12.8000 -51.1000 TS 45 1000 0 11 267
1995278N08329 1995 77 NA NA PABLO 1995-10-07 15:00:00 TS 12.7147 -51.6627 main 809 778 P_____________ AL181995 12.7147 -51.6627 TS 45 1000 0 12 260
1995278N08329 1995 77 NA NA PABLO 1995-10-07 18:00:00 TS 12.6000 -52.3000 45 1000 hurdat_atl main 778 761 O_____________ hurdat_atl AL181995 12.6000 -52.3000 TS 45 1000 0 14 263
1995278N08329 1995 77 NA NA PABLO 1995-10-07 21:00:00 TS 12.5499 -53.0549 main 749 740 P_____________ AL181995 12.5499 -53.0549 TS 45 1000 0 16 266
1995278N08329 1995 77 NA NA PABLO 1995-10-08 00:00:00 TS 12.5000 -53.9000 45 1001 hurdat_atl main 740 681 O_____________ hurdat_atl AL181995 12.5000 -53.9000 TS 45 1001 0 17 265
1995278N08329 1995 77 NA NA PABLO 1995-10-08 03:00:00 TS 12.4073 -54.7850 main 674 608 P_____________ AL181995 12.4073 -54.7850 TS 45 1004 0 18 264
1995278N08329 1995 77 NA NA PABLO 1995-10-08 06:00:00 TS 12.3000 -55.7000 45 1007 hurdat_atl main 602 508 O_____________ hurdat_atl AL181995 12.3000 -55.7000 TS 45 1007 0 18 263
1995278N08329 1995 77 NA NA PABLO 1995-10-08 09:00:00 TS 12.1980 -56.6050 main 508 412 P_____________ AL181995 12.1980 -56.6050 TS 37 1008 0 18 264
1995278N08329 1995 77 NA NA PABLO 1995-10-08 12:00:00 TS 12.1000 -57.5000 30 1009 hurdat_atl main 412 O_____________ hurdat_atl AL181995 12.1000 -57.5000 TD 30 1009 -1 18 264

About IBTrACS Database

This database is a web-friendly format of International Best Track Archive for Climate Stewardship (IBTrACS), a global best track data archive curated by NOAA dating back to 1842.

Updated: 2021-11-26